createdAt,value
2023-03-18T00:01:04.188Z,100545.53
2023-03-18T00:03:33.349Z,100540.34
2023-03-18T00:06:09.944Z,100531.75
2023-03-18T00:08:39.484Z,100538.69
2023-03-18T00:11:10.192Z,100532.66
2023-03-18T00:13:39.700Z,100524.88
2023-03-18T00:16:11.424Z,100530.13
2023-03-18T00:18:40.440Z,100519.75
2023-03-18T00:21:09.770Z,100523.19
2023-03-18T00:23:39.094Z,100524.94
2023-03-18T00:26:09.176Z,100522.38
2023-03-18T00:28:39.613Z,100521.53
2023-03-18T00:31:10.080Z,100518.13
2023-03-18T00:33:40.219Z,100521.56
2023-03-18T00:36:10.717Z,100516.34
2023-03-18T00:38:39.313Z,100517.22
2023-03-18T01:05:44.128Z,100497.50
2023-03-18T01:08:13.611Z,100495.78
2023-03-18T01:10:42.250Z,100500.97
2023-03-18T01:13:12.643Z,100496.69
2023-03-18T01:15:42.033Z,100494.97
2023-03-18T01:18:11.326Z,100488.91
2023-03-18T01:20:40.429Z,100492.38
2023-03-18T01:23:10.823Z,100488.97
2023-03-18T01:25:40.121Z,100482.06
2023-03-18T01:28:08.755Z,100480.38
2023-03-18T01:30:38.620Z,100479.50
2023-03-18T01:33:08.916Z,100481.22
2023-03-18T01:35:38.665Z,100483.84
2023-03-18T01:38:07.597Z,100474.41
2023-03-18T02:05:52.471Z,100467.56
2023-03-18T02:08:21.747Z,100457.22
2023-03-18T02:10:51.097Z,100467.56
2023-03-18T02:13:19.942Z,100458.09
2023-03-18T02:15:53.696Z,100461.53
2023-03-18T02:18:30.123Z,100458.94
2023-03-18T02:21:26.099Z,100467.59
2023-03-18T02:24:15.392Z,100457.22
2023-03-18T02:26:51.888Z,100458.97
2023-03-18T02:29:29.438Z,100455.53
2023-03-18T02:32:06.188Z,100459.88
2023-03-18T02:34:36.663Z,100445.22
2023-03-18T02:37:08.103Z,100444.34
2023-03-18T02:39:39.110Z,100443.47
2023-03-18T02:42:07.770Z,100449.50
2023-03-18T02:44:42.962Z,100447.81
2023-03-18T02:47:50.323Z,100452.13
2023-03-18T02:50:20.572Z,100453.88
2023-03-18T02:52:49.415Z,100450.41
2023-03-18T02:55:18.576Z,100453.88
2023-03-18T02:57:46.995Z,100451.31
2023-03-18T03:00:17.720Z,100461.66
2023-03-18T03:02:46.356Z,100456.50
2023-03-18T03:05:15.485Z,100454.78
2023-03-18T03:07:43.926Z,100459.13
2023-03-18T03:10:13.490Z,100460.84
2023-03-18T03:12:43.441Z,100448.78
2023-03-18T03:15:13.431Z,100456.59
2023-03-18T03:17:48.465Z,100441.09
2023-03-18T03:20:19.782Z,100443.72
2023-03-18T03:22:49.076Z,100447.22
2023-03-18T03:25:19.571Z,100436.91
2023-03-18T03:27:48.479Z,100436.03
2023-03-18T03:30:18.616Z,100430.91
2023-03-18T03:32:48.788Z,100431.75
2023-03-18T03:35:19.547Z,100431.75
2023-03-18T03:37:48.431Z,100432.63
2023-03-18T03:40:20.583Z,100428.31
2023-03-18T03:42:49.736Z,100424.03
2023-03-18T03:45:19.429Z,100425.75
2023-03-18T03:47:49.678Z,100424.03
2023-03-18T03:50:19.699Z,100424.03
2023-03-18T03:52:48.598Z,100416.25
2023-03-18T03:55:20.671Z,100417.09
2023-03-18T03:57:49.424Z,100419.72
2023-03-18T04:00:20.725Z,100414.53
2023-03-18T04:02:54.269Z,100414.56
2023-03-18T04:05:26.121Z,100417.13
2023-03-18T04:07:55.629Z,100420.56
2023-03-18T04:10:36.686Z,100411.06
2023-03-18T04:13:07.803Z,100419.69
2023-03-18T04:15:36.453Z,100419.72
2023-03-18T04:18:17.080Z,100420.63
2023-03-18T04:20:46.453Z,100415.44
2023-03-18T04:23:41.024Z,100416.31
2023-03-18T04:26:10.617Z,100415.44
2023-03-18T04:28:39.376Z,100417.19
2023-03-18T04:31:10.246Z,100418.03
2023-03-18T04:33:40.264Z,100412.84
2023-03-18T04:36:10.069Z,100410.25
2023-03-18T04:38:40.220Z,100413.66
2023-03-18T04:41:09.462Z,100417.09
2023-03-18T04:43:38.980Z,100408.47
2023-03-18T04:46:08.904Z,100411.91
2023-03-18T04:48:39.235Z,100405.00
2023-03-18T04:51:10.576Z,100407.59
2023-03-18T04:53:40.198Z,100403.25
2023-03-18T04:56:10.733Z,100406.72
2023-03-18T04:58:47.650Z,100408.44
2023-03-18T05:01:20.632Z,100416.19
2023-03-18T05:03:51.931Z,100415.25
2023-03-18T05:06:24.825Z,100406.59
2023-03-18T05:09:00.180Z,100415.19
2023-03-18T05:11:34.431Z,100408.28
2023-03-18T05:14:12.076Z,100415.13
2023-03-18T05:16:45.669Z,100408.22
2023-03-18T05:19:17.277Z,100412.44
2023-03-18T05:21:57.483Z,100412.38
2023-03-18T05:24:27.520Z,100413.19
2023-03-18T05:26:57.545Z,100409.69
2023-03-18T05:29:32.668Z,100409.63
2023-03-18T05:32:13.020Z,100416.47
2023-03-18T05:34:43.652Z,100411.22
2023-03-18T05:37:16.121Z,100406.03
2023-03-18T05:39:52.491Z,100410.25
2023-03-18T05:42:21.692Z,100404.13
2023-03-18T05:44:50.946Z,100398.88
2023-03-18T05:47:23.346Z,100391.00
2023-03-18T05:50:06.026Z,100389.19
2023-03-18T05:52:36.522Z,100401.19
2023-03-18T05:55:08.416Z,100405.44
2023-03-18T05:57:40.481Z,100395.84
2023-03-18T06:00:13.624Z,100399.16
2023-03-18T06:02:47.652Z,100400.78
2023-03-18T06:05:21.255Z,100394.59
2023-03-18T06:07:49.912Z,100399.66
2023-03-18T06:10:18.776Z,100402.06
2023-03-18T06:12:49.519Z,100398.47
2023-03-18T06:15:18.977Z,100393.94
2023-03-18T06:17:48.825Z,100400.72
2023-03-18T06:20:20.029Z,100395.34
2023-03-18T06:22:50.086Z,100399.47
2023-03-18T06:25:21.264Z,100397.56
2023-03-18T06:27:51.147Z,100396.53
2023-03-18T06:30:22.597Z,100403.31
2023-03-18T06:32:51.903Z,100391.97
2023-03-18T06:35:22.430Z,100391.00
2023-03-18T06:48:49.145Z,100422.31
2023-03-18T07:24:11.541Z,100423.97
2023-03-18T07:26:40.197Z,100422.09
2023-03-18T07:29:11.237Z,100423.66
2023-03-18T07:31:40.165Z,100426.13
2023-03-18T07:34:09.611Z,100415.47
2023-03-18T07:52:57.254Z,100416.28
2023-03-18T07:55:27.246Z,100420.84
2023-03-18T08:27:48.371Z,100423.34
2023-03-18T08:30:17.606Z,100418.44
2023-03-18T08:32:46.652Z,100412.81
2023-03-18T08:59:44.814Z,100407.53
2023-03-18T09:02:17.014Z,100411.69
2023-03-18T09:04:45.512Z,100407.81
2023-03-18T09:07:16.374Z,100397.72
2023-03-18T09:20:41.926Z,100392.59
2023-03-18T09:23:11.567Z,100390.59
2023-03-18T09:25:42.795Z,100394.81
2023-03-18T09:28:11.778Z,100393.53
2023-03-18T09:30:41.813Z,100395.38
2023-03-18T09:33:11.644Z,100398.59
2023-03-18T09:35:40.545Z,100393.56
2023-03-18T09:38:10.465Z,100393.84
2023-03-18T09:40:52.204Z,100392.81
2023-03-18T09:43:37.378Z,100392.63
2023-03-18T09:46:14.942Z,100387.56
2023-03-18T09:49:02.986Z,100384.31
2023-03-18T09:51:43.432Z,100390.75
2023-03-18T09:54:17.323Z,100385.78
2023-03-18T09:56:46.963Z,100386.72
2023-03-18T09:59:21.687Z,100382.38
2023-03-18T10:01:55.515Z,100383.81
2023-03-18T10:04:26.822Z,100374.75
2023-03-18T10:07:04.481Z,100369.56
2023-03-18T10:09:41.180Z,100376.13
2023-03-18T10:12:19.147Z,100380.31
2023-03-18T10:14:52.781Z,100383.25
2023-03-18T10:17:30.463Z,100395.53
2023-03-18T10:20:00.640Z,100378.16
2023-03-18T10:22:52.139Z,100379.22
2023-03-18T10:25:26.681Z,100382.28
2023-03-18T10:28:07.611Z,100372.91
2023-03-18T10:30:51.472Z,100379.47
2023-03-18T10:33:33.809Z,100383.22
2023-03-18T10:36:08.824Z,100370.56
2023-03-18T10:38:41.536Z,100372.13
2023-03-18T10:41:26.435Z,100376.00
2023-03-18T10:43:57.705Z,100368.38
2023-03-18T10:46:28.474Z,100367.63
2023-03-18T10:49:02.900Z,100366.00
2023-03-18T10:51:36.298Z,100367.78
2023-03-18T10:54:12.750Z,100367.00
2023-03-18T10:56:41.558Z,100358.56
2023-03-18T10:59:18.328Z,100366.50
2023-03-18T11:01:50.163Z,100358.44
2023-03-18T11:04:23.410Z,100363.38
2023-03-18T11:06:54.604Z,100356.84
2023-03-18T11:09:31.850Z,100350.44
2023-03-18T11:12:05.746Z,100350.25
2023-03-18T11:14:37.595Z,100340.56
2023-03-18T11:17:08.316Z,100340.44
2023-03-18T11:19:41.900Z,100342.59
2023-03-18T11:22:22.428Z,100348.91
2023-03-18T11:25:04.178Z,100336.41
2023-03-18T11:27:40.055Z,100335.88
2023-03-18T11:30:33.605Z,100331.88
2023-03-18T11:33:07.377Z,100329.63
2023-03-18T11:35:42.234Z,100325.00
2023-03-18T11:38:17.078Z,100320.19
2023-03-18T11:40:46.508Z,100317.75
2023-03-18T11:43:19.984Z,100316.78
2023-03-18T11:45:58.994Z,100316.41
2023-03-18T11:48:36.898Z,100304.97
2023-03-18T11:51:38.851Z,100308.66
2023-03-18T11:54:20.579Z,100302.66
2023-03-18T11:56:56.400Z,100295.28
2023-03-18T11:59:51.773Z,100299.47
2023-03-18T12:02:32.373Z,100295.72
2023-03-18T12:05:09.546Z,100310.66
2023-03-18T12:08:01.747Z,100309.16
2023-03-18T12:10:32.960Z,100305.28
2023-03-18T12:13:14.677Z,100303.84
2023-03-18T12:15:53.205Z,100308.50
2023-03-18T12:18:35.891Z,100290.59
2023-03-18T12:21:19.568Z,100295.06
2023-03-18T12:24:04.262Z,100297.09
2023-03-18T12:26:40.586Z,100289.81
2023-03-18T12:29:42.581Z,100288.91
2023-03-18T12:32:22.106Z,100284.47
2023-03-18T12:35:02.721Z,100282.41
2023-03-18T12:37:45.665Z,100286.50
2023-03-18T12:40:38.961Z,100289.38
2023-03-18T12:43:30.114Z,100279.47
2023-03-18T12:46:04.581Z,100271.31
2023-03-18T12:48:44.431Z,100270.75
2023-03-18T12:51:19.795Z,100273.88
2023-03-18T12:53:53.512Z,100270.41
2023-03-18T12:56:25.977Z,100281.53
2023-03-18T12:59:01.021Z,100278.31
2023-03-18T13:01:37.449Z,100279.44
2023-03-18T13:04:10.505Z,100270.03
2023-03-18T13:06:43.235Z,100263.53
2023-03-18T13:09:20.294Z,100266.06
2023-03-18T13:12:26.637Z,100262.66
2023-03-18T13:15:29.846Z,100260.13
2023-03-18T13:18:02.455Z,100264.31
2023-03-18T13:20:34.382Z,100263.13
2023-03-18T13:23:23.113Z,100256.41
2023-03-18T13:26:07.294Z,100253.59
2023-03-18T13:28:51.592Z,100255.97
2023-03-18T13:31:31.893Z,100249.06
2023-03-18T13:34:31.887Z,100250.41
2023-03-18T13:37:39.148Z,100240.78
2023-03-18T13:40:29.166Z,100243.38
2023-03-18T13:43:00.332Z,100232.03
2023-03-18T13:45:33.942Z,100233.00
2023-03-18T13:48:07.667Z,100237.88
2023-03-18T13:50:39.877Z,100233.53
2023-03-18T13:53:22.896Z,100231.09
2023-03-18T13:56:01.640Z,100224.75
2023-03-18T13:58:34.954Z,100218.94
2023-03-18T14:01:35.786Z,100210.69
2023-03-18T14:04:31.553Z,100219.00
2023-03-18T14:07:15.295Z,100216.41
2023-03-18T14:10:08.312Z,100206.31
2023-03-18T14:12:47.955Z,100208.13
2023-03-18T14:15:40.275Z,100214.50
2023-03-18T14:18:27.674Z,100215.38
2023-03-18T14:21:01.624Z,100211.13
2023-03-18T14:23:44.860Z,100202.75
2023-03-18T14:26:22.710Z,100203.94
2023-03-18T14:28:57.418Z,100198.09
2023-03-18T14:31:35.594Z,100198.75
2023-03-18T14:34:26.760Z,100197.97
2023-03-18T14:37:21.307Z,100192.97
2023-03-18T14:39:53.795Z,100193.59
2023-03-18T14:42:31.721Z,100190.66
2023-03-18T14:45:06.796Z,100187.78
2023-03-18T14:47:43.691Z,100185.03
2023-03-18T14:50:33.955Z,100182.56
2023-03-18T14:53:17.200Z,100178.50
2023-03-18T14:55:47.213Z,100180.19
2023-03-18T14:58:18.107Z,100180.09
2023-03-18T15:00:49.851Z,100183.25
2023-03-18T15:03:22.797Z,100180.22
2023-03-18T15:05:58.320Z,100173.88
2023-03-18T15:08:44.645Z,100174.47
2023-03-18T15:11:17.713Z,100171.06
2023-03-18T15:13:46.595Z,100174.06
2023-03-18T15:16:20.965Z,100172.69
2023-03-18T15:18:54.919Z,100174.84
2023-03-18T15:21:30.486Z,100181.34
2023-03-18T15:24:02.226Z,100167.56
2023-03-18T15:26:34.161Z,100174.47
2023-03-18T15:29:24.362Z,100169.88
2023-03-18T15:31:54.240Z,100169.63
2023-03-18T15:34:25.192Z,100179.91
2023-03-18T15:36:56.709Z,100171.47
2023-03-18T15:39:33.628Z,100176.34
2023-03-18T15:42:06.143Z,100173.50
2023-03-18T15:44:37.345Z,100178.78
2023-03-18T15:47:14.027Z,100181.91
2023-03-18T15:49:52.156Z,100185.03
2023-03-18T15:52:25.292Z,100185.19
2023-03-18T15:54:54.787Z,100177.78
2023-03-18T15:57:30.487Z,100183.50
2023-03-18T15:59:58.888Z,100176.63
2023-03-18T16:02:28.762Z,100184.34
2023-03-18T16:05:07.774Z,100186.72
2023-03-18T16:07:38.708Z,100182.63
2023-03-18T16:10:08.655Z,100193.50
2023-03-18T16:12:39.498Z,100196.84
2023-03-18T16:15:15.260Z,100191.00
2023-03-18T16:17:43.900Z,100196.13
2023-03-18T16:20:17.969Z,100191.59
2023-03-18T16:22:47.854Z,100195.69
2023-03-18T16:25:16.668Z,100197.09
2023-03-18T16:27:48.601Z,100202.06
2023-03-18T16:30:20.441Z,100195.78
2023-03-18T16:32:49.039Z,100198.88
2023-03-18T16:35:20.554Z,100200.25
2023-03-18T16:37:51.189Z,100196.56
2023-03-18T16:40:22.424Z,100193.66
2023-03-18T16:42:52.885Z,100191.59
2023-03-18T16:45:25.386Z,100191.94
2023-03-18T16:47:58.328Z,100189.78
2023-03-18T16:50:30.574Z,100199.00
2023-03-18T16:53:00.833Z,100191.50
2023-03-18T16:55:29.330Z,100198.84
2023-03-18T16:58:00.857Z,100191.44
2023-03-18T17:00:32.088Z,100195.31
2023-03-18T17:03:00.993Z,100192.19
2023-03-18T17:05:29.805Z,100188.97
2023-03-18T17:07:58.342Z,100197.94
2023-03-18T17:10:29.811Z,100187.91
2023-03-18T17:13:02.305Z,100194.25
2023-03-18T17:15:34.870Z,100191.88
2023-03-18T17:18:04.677Z,100195.59
2023-03-18T17:20:33.689Z,100197.59
2023-03-18T17:23:04.636Z,100196.94
2023-03-18T17:25:34.952Z,100195.53
2023-03-18T17:28:07.622Z,100191.44
2023-03-18T17:30:39.140Z,100196.81
2023-03-18T17:33:22.746Z,100192.72
2023-03-18T17:35:52.682Z,100197.19
2023-03-18T17:38:22.996Z,100202.56
2023-03-18T17:40:53.337Z,100196.75
2023-03-18T17:43:27.948Z,100205.63
2023-03-18T17:45:57.429Z,100204.00
2023-03-18T17:48:28.368Z,100203.31
2023-03-18T17:50:59.579Z,100207.78
2023-03-18T17:53:31.765Z,100216.66
2023-03-18T17:56:03.344Z,100210.00
2023-03-18T17:58:33.680Z,100213.69
2023-03-18T18:01:07.026Z,100216.44
2023-03-18T18:03:37.099Z,100214.03
2023-03-18T18:06:06.954Z,100211.53
2023-03-18T18:08:36.363Z,100218.56
2023-03-18T18:11:16.455Z,100223.00
2023-03-18T18:13:45.352Z,100219.69
2023-03-18T18:16:14.805Z,100217.09
2023-03-18T18:18:43.699Z,100220.59
2023-03-18T18:21:15.906Z,100213.72
2023-03-18T18:23:45.224Z,100214.00
2023-03-18T18:26:17.928Z,100207.31
2023-03-18T18:28:49.629Z,100201.56
2023-03-18T18:31:22.942Z,100201.84
2023-03-18T18:33:52.851Z,100199.53
2023-03-18T18:36:21.590Z,100205.81
2023-03-18T18:38:50.974Z,100201.69
2023-03-18T18:41:21.628Z,100199.19
2023-03-18T18:43:50.202Z,100191.47
2023-03-18T18:46:19.819Z,100206.41
2023-03-18T18:48:49.673Z,100199.53
2023-03-18T18:51:20.245Z,100201.31
2023-03-18T18:53:49.518Z,100198.72
2023-03-18T18:56:23.695Z,100197.00
2023-03-18T18:58:52.957Z,100196.13
2023-03-18T19:01:22.250Z,100196.16
2023-03-18T19:03:51.446Z,100201.44
2023-03-18T19:06:27.688Z,100202.34
2023-03-18T19:08:58.283Z,100206.66
2023-03-18T19:11:29.331Z,100198.72
2023-03-18T19:14:17.816Z,100205.59
2023-03-18T19:16:47.060Z,100202.16
2023-03-18T19:19:21.674Z,100196.41
2023-03-18T19:21:51.146Z,100203.41
2023-03-18T19:24:27.783Z,100209.66
2023-03-18T19:26:59.528Z,100204.56
2023-03-18T19:29:28.718Z,100202.94
2023-03-18T19:31:57.652Z,100202.13
2023-03-18T19:34:27.094Z,100205.63
2023-03-18T19:36:57.072Z,100202.19
2023-03-18T19:39:28.015Z,100207.50
2023-03-18T19:41:58.050Z,100204.97
2023-03-18T19:44:28.132Z,100209.47
2023-03-18T19:47:01.305Z,100200.16
2023-03-18T19:49:33.767Z,100208.97
2023-03-18T19:52:03.181Z,100202.88
2023-03-18T19:54:33.553Z,100207.19
2023-03-18T19:57:06.931Z,100212.50
2023-03-18T19:59:39.465Z,100211.63
2023-03-18T20:02:19.958Z,100209.13
2023-03-18T20:04:49.692Z,100207.50
2023-03-18T20:07:19.762Z,100208.38
2023-03-18T20:09:48.853Z,100201.44
2023-03-18T20:12:26.935Z,100201.56
2023-03-18T20:14:55.856Z,100193.06
2023-03-18T20:17:29.701Z,100196.63
2023-03-18T20:19:59.075Z,100195.06
2023-03-18T20:22:31.688Z,100184.75
2023-03-18T20:25:00.803Z,100190.72
2023-03-18T20:27:31.650Z,100187.25
2023-03-18T20:30:00.997Z,100188.19
2023-03-18T20:32:29.953Z,100182.94
2023-03-18T20:34:58.578Z,100186.59
2023-03-18T20:37:34.012Z,100185.00
2023-03-18T20:40:04.335Z,100188.56
2023-03-18T20:42:34.460Z,100190.38
2023-03-18T20:45:04.887Z,100193.91
2023-03-18T20:47:33.840Z,100189.59
2023-03-18T20:50:03.172Z,100193.94
2023-03-18T20:52:32.531Z,100194.88
2023-03-18T20:55:01.506Z,100193.19
2023-03-18T20:57:30.003Z,100192.47
2023-03-18T21:00:00.383Z,100195.06
2023-03-18T21:02:32.079Z,100190.72
2023-03-18T21:05:03.379Z,100193.28
2023-03-18T21:07:32.356Z,100192.34
2023-03-18T21:10:01.393Z,100196.81
2023-03-18T21:12:30.212Z,100193.47
2023-03-18T21:15:00.777Z,100196.19
2023-03-18T21:17:30.030Z,100194.56
2023-03-18T21:20:11.024Z,100195.56
2023-03-18T21:22:44.672Z,100198.25
2023-03-18T21:25:22.171Z,100196.59
2023-03-18T21:27:51.768Z,100191.47
2023-03-18T21:30:22.921Z,100186.41
2023-03-18T21:32:51.700Z,100189.75
2023-03-18T21:35:22.146Z,100188.09
2023-03-18T21:37:50.781Z,100192.47
2023-03-18T21:40:21.961Z,100181.25
2023-03-18T21:42:51.856Z,100185.69
2023-03-18T21:45:24.362Z,100186.59
2023-03-18T21:47:53.660Z,100187.53
2023-03-18T21:50:24.259Z,100189.34
2023-03-18T21:52:53.659Z,100186.66
2023-03-18T21:55:23.571Z,100184.94
2023-03-18T21:57:52.143Z,100184.91
2023-03-18T22:00:22.738Z,100184.94
2023-03-18T22:02:51.690Z,100189.38
2023-03-18T22:05:21.989Z,100172.06
2023-03-18T22:07:51.504Z,100182.31
2023-03-18T22:10:21.760Z,100188.41
2023-03-18T22:13:10.778Z,100188.41
2023-03-18T22:16:17.786Z,100181.47
2023-03-18T22:18:47.649Z,100182.22
2023-03-18T22:21:20.561Z,100178.00
2023-03-18T22:23:49.235Z,100180.63
2023-03-18T22:26:20.338Z,100187.56
2023-03-18T22:28:50.774Z,100189.34
2023-03-18T22:31:23.076Z,100187.66
2023-03-18T22:33:52.390Z,100185.94
2023-03-18T22:36:23.852Z,100186.81
2023-03-18T22:38:52.461Z,100192.88
2023-03-18T22:41:23.449Z,100186.81
2023-03-18T22:43:53.538Z,100184.19
2023-03-18T22:46:23.503Z,100187.69
2023-03-18T22:48:51.933Z,100184.38
2023-03-18T22:51:24.673Z,100188.69
2023-03-18T22:53:54.957Z,100183.56
2023-03-18T22:56:24.076Z,100185.25
2023-03-18T22:58:53.100Z,100188.69
2023-03-18T23:01:27.893Z,100194.03
2023-03-18T23:03:57.026Z,100189.78
2023-03-18T23:06:27.368Z,100193.25
2023-03-18T23:08:55.937Z,100202.00
2023-03-18T23:11:24.939Z,100199.53
2023-03-18T23:13:55.848Z,100194.50
2023-03-18T23:16:26.193Z,100192.81
2023-03-18T23:18:54.832Z,100195.47
2023-03-18T23:21:25.218Z,100197.28
2023-03-18T23:23:54.521Z,100191.19
2023-03-18T23:26:23.296Z,100198.09
2023-03-18T23:28:52.455Z,100195.50
2023-03-18T23:31:20.900Z,100194.56
2023-03-18T23:33:51.126Z,100193.69
2023-03-18T23:36:19.816Z,100195.41
2023-03-18T23:38:49.006Z,100197.16
2023-03-18T23:41:17.657Z,100194.56
2023-03-18T23:43:47.365Z,100200.66
2023-03-18T23:46:15.728Z,100189.38
2023-03-18T23:48:44.153Z,100198.84
2023-03-18T23:51:15.481Z,100196.22
2023-03-18T23:53:44.266Z,100191.94
2023-03-18T23:56:13.843Z,100196.28
2023-03-18T23:58:42.624Z,100194.56
